Time;durP1;ratioP1;P1;durP2;ratioP2;P2;SDS_P1;SDS_P2;PMS_P1;PMS_P2;Temp;Humidity;BMP_temperature;BMP_pressure;BME280_temperature;BME280_humidity;BME280_pressure;Samples;Min_cycle;Max_cycle;Signal;HPM_P1;HPM_P2
2022/01/01 00:04:23;;;;;;;190.07;138.52;;;20.70;51.10;;;;;;4338880;64;21067;-36
2022/01/01 00:09:24;;;;;;;179.30;130.98;;;20.70;51.10;;;;;;4395337;60;21579;-35
2022/01/01 00:14:25;;;;;;;186.30;137.65;;;20.70;51.10;;;;;;4341243;60;21071;-33
2022/01/01 00:19:26;;;;;;;186.52;138.25;;;20.70;51.00;;;;;;4355175;60;21047;-36
2022/01/01 00:24:27;;;;;;;192.98;140.37;;;20.70;51.10;;;;;;4347574;60;22447;-36
2022/01/01 00:29:28;;;;;;;189.85;137.88;;;20.70;51.00;;;;;;4347719;60;21048;-35
2022/01/01 00:34:29;;;;;;;182.02;138.27;;;20.70;51.10;;;;;;4338508;64;21060;-35
2022/01/01 00:39:30;;;;;;;186.32;137.40;;;20.60;50.90;;;;;;4370126;60;21075;-34
2022/01/01 00:44:32;;;;;;;175.62;130.63;;;20.60;50.80;;;;;;4338197;64;21060;-31
2022/01/01 00:49:33;;;;;;;177.35;128.52;;;20.60;50.80;;;;;;4347900;60;21518;-36
2022/01/01 00:54:34;;;;;;;188.85;137.62;;;20.60;50.80;;;;;;4338921;64;21581;-35
2022/01/01 00:59:35;;;;;;;189.13;140.48;;;20.60;50.80;;;;;;4340398;60;21063;-33
2022/01/01 01:04:36;;;;;;;185.00;138.32;;;20.60;50.70;;;;;;4347370;60;21562;-36
2022/01/01 01:09:37;;;;;;;188.40;139.45;;;20.60;50.80;;;;;;4360099;60;21071;-35
2022/01/01 01:14:41;;;;;;;184.00;138.37;;;20.60;50.70;;;;;;4348943;60;21566;-36
2022/01/01 01:19:42;;;;;;;175.70;127.47;;;20.60;50.70;;;;;;4338958;64;21670;-36
2022/01/01 01:24:43;;;;;;;183.02;135.35;;;20.60;50.70;;;;;;4344182;60;21064;-35
2022/01/01 01:29:45;;;;;;;178.05;130.90;;;20.60;50.60;;;;;;4358705;60;21522;-35
2022/01/01 01:34:46;;;;;;;180.87;133.82;;;20.60;50.50;;;;;;4338611;61;21188;-36
2022/01/01 01:39:47;;;;;;;188.52;140.10;;;20.60;50.60;;;;;;4365379;60;21146;-35
2022/01/01 01:44:51;;;;;;;185.55;137.52;;;20.60;50.50;;;;;;4341733;60;21048;-34
2022/01/01 01:49:52;;;;;;;182.82;134.37;;;20.60;50.50;;;;;;4357807;60;21525;-34
2022/01/01 01:54:53;;;;;;;177.23;134.30;;;20.60;50.50;;;;;;4338193;64;21055;-32
2022/01/01 01:59:54;;;;;;;178.20;131.23;;;20.60;50.40;;;;;;4339390;64;21658;-32
2022/01/01 02:04:55;;;;;;;160.52;116.88;;;20.60;50.50;;;;;;4351713;60;21108;-32
2022/01/01 02:09:57;;;;;;;166.88;124.20;;;20.60;50.40;;;;;;4386508;60;21529;-32
2022/01/01 02:15:13;;;;;;;179.00;131.18;;;20.60;50.40;;;;;;4355716;60;21144;-36
2022/01/01 02:20:18;;;;;;;175.70;132.15;;;20.60;50.40;;;;;;4338996;64;21535;-33
2022/01/01 02:25:20;;;;;;;168.62;121.35;;;20.60;50.30;;;;;;4351400;60;21156;-34
2022/01/01 02:30:21;;;;;;;170.15;126.20;;;20.60;50.40;;;;;;4343911;60;21132;-35
2022/01/01 02:35:22;;;;;;;168.85;125.93;;;20.60;50.30;;;;;;4350589;60;21120;-30
2022/01/01 02:40:23;;;;;;;169.95;127.57;;;20.60;50.30;;;;;;4366041;60;21087;-27
2022/01/01 02:45:24;;;;;;;166.60;127.18;;;20.60;50.20;;;;;;4351074;60;21585;-35
2022/01/01 02:50:25;;;;;;;171.80;127.47;;;20.60;50.10;;;;;;4351572;60;21565;-35
2022/01/01 02:55:26;;;;;;;168.82;127.62;;;20.60;50.10;;;;;;4339271;64;21574;-36
2022/01/01 03:00:27;;;;;;;169.93;125.60;;;20.60;50.10;;;;;;4371300;60;21694;-35
2022/01/01 03:05:31;;;;;;;161.52;119.47;;;20.60;50.20;;;;;;4343784;60;21949;-36
2022/01/01 03:10:32;;;;;;;162.35;122.30;;;20.60;50.10;;;;;;4347811;60;21116;-36
2022/01/01 03:15:33;;;;;;;164.98;122.78;;;20.60;50.00;;;;;;4338357;64;21092;-37
2022/01/01 03:20:34;;;;;;;155.70;117.07;;;20.60;50.60;;;;;;4358120;60;21059;-35
2022/01/01 03:25:35;;;;;;;161.05;120.07;;;20.60;50.00;;;;;;4369094;60;21051;-35
2022/01/01 03:30:35;;;;;;;156.90;119.75;;;20.60;49.90;;;;;;4350616;60;21076;-37
2022/01/01 03:35:36;;;;;;;161.05;122.93;;;20.50;49.80;;;;;;4338690;62;21072;-28
2022/01/01 03:40:37;;;;;;;154.45;118.10;;;20.50;49.80;;;;;;4350978;60;21051;-35
2022/01/01 03:45:38;;;;;;;162.98;122.60;;;20.60;49.90;;;;;;4347455;60;21540;-36
2022/01/01 03:50:39;;;;;;;160.52;120.57;;;20.50;49.80;;;;;;4350432;60;21060;-33
2022/01/01 03:55:40;;;;;;;154.85;117.82;;;20.50;49.80;;;;;;4358337;60;21107;-35
2022/01/01 04:00:41;;;;;;;158.25;121.97;;;20.50;49.80;;;;;;4362054;60;21138;-33
2022/01/01 04:05:42;;;;;;;156.07;117.80;;;20.50;49.70;;;;;;4342880;60;21653;-32
2022/01/01 04:10:43;;;;;;;146.27;109.07;;;20.50;49.70;;;;;;4351805;60;21143;-35
2022/01/01 04:15:44;;;;;;;143.52;109.47;;;20.50;49.80;;;;;;4351272;60;21637;-36
2022/01/01 04:20:47;;;;;;;146.10;112.65;;;20.50;49.70;;;;;;4375900;60;21155;-31
2022/01/01 04:25:48;;;;;;;150.10;113.10;;;20.50;49.80;;;;;;4339127;60;21581;-35
2022/01/01 04:30:49;;;;;;;156.55;116.00;;;20.50;49.50;;;;;;4346737;60;21107;-28
2022/01/01 04:35:50;;;;;;;148.90;114.75;;;20.50;49.70;;;;;;4398711;60;21614;-35
2022/01/01 04:40:51;;;;;;;142.50;103.72;;;20.50;49.60;;;;;;4392207;60;21116;-33
2022/01/01 04:45:52;;;;;;;139.37;106.45;;;20.50;49.60;;;;;;4352627;60;21072;-36
2022/01/01 04:50:53;;;;;;;147.25;109.53;;;20.50;49.60;;;;;;4362408;60;21059;-36
2022/01/01 04:55:54;;;;;;;148.23;112.28;;;20.50;49.50;;;;;;4338873;64;21150;-34
2022/01/01 05:00:55;;;;;;;136.80;106.93;;;20.50;49.50;;;;;;4372738;60;21111;-35
2022/01/01 05:05:56;;;;;;;133.02;101.82;;;20.50;49.50;;;;;;4341681;60;21601;-36
2022/01/01 05:10:57;;;;;;;133.23;100.45;;;20.50;49.40;;;;;;4351795;60;21139;-35
2022/01/01 05:15:58;;;;;;;140.93;106.80;;;20.50;49.40;;;;;;4338034;64;21079;-34
2022/01/01 05:20:58;;;;;;;142.73;107.97;;;20.50;49.40;;;;;;4343320;60;21635;-33
2022/01/01 05:26:00;;;;;;;130.75;98.85;;;20.50;49.30;;;;;;4352234;60;21087;-36
2022/01/01 05:31:00;;;;;;;132.45;101.95;;;20.50;49.30;;;;;;4349715;60;21087;-37
2022/01/01 05:36:01;;;;;;;135.65;99.95;;;20.50;49.30;;;;;;4354531;60;21577;-26
2022/01/01 05:41:02;;;;;;;137.18;103.70;;;20.50;49.30;;;;;;4391236;60;21166;-35
2022/01/01 05:46:04;;;;;;;134.65;101.78;;;20.50;49.20;;;;;;4370804;60;21996;-32
2022/01/01 05:51:06;;;;;;;131.10;101.28;;;20.50;49.30;;;;;;4341942;60;21136;-30
2022/01/01 05:56:07;;;;;;;128.77;99.87;;;20.50;49.10;;;;;;4372680;60;21585;-35
2022/01/01 06:01:08;;;;;;;127.50;97.95;;;20.50;49.20;;;;;;4343788;60;21064;-33
2022/01/01 06:06:08;;;;;;;129.55;97.68;;;20.50;49.20;;;;;;4383151;60;21643;-33
2022/01/01 06:11:09;;;;;;;124.75;96.30;;;20.50;49.20;;;;;;4367233;60;21661;-32
2022/01/01 06:16:10;;;;;;;125.68;97.12;;;20.50;49.10;;;;;;4348802;60;21110;-35
2022/01/01 06:21:11;;;;;;;123.85;90.03;;;20.50;49.00;;;;;;4338225;62;21086;-32
2022/01/01 06:26:12;;;;;;;123.05;96.60;;;20.50;49.10;;;;;;4360555;60;21829;-36
2022/01/01 06:31:13;;;;;;;118.18;89.45;;;20.50;49.10;;;;;;4371819;60;21289;-34
2022/01/01 06:36:14;;;;;;;119.50;92.57;;;20.50;49.00;;;;;;4338415;61;21063;-34
2022/01/01 06:41:16;;;;;;;117.60;89.82;;;20.50;49.00;;;;;;4369071;60;21060;-35
2022/01/01 06:46:17;;;;;;;114.07;86.53;;;20.50;48.90;;;;;;4348452;60;22358;-33
2022/01/01 06:51:18;;;;;;;114.78;86.90;;;20.50;48.90;;;;;;4353172;60;21087;-33
2022/01/01 06:56:18;;;;;;;110.95;84.75;;;20.50;48.90;;;;;;4339372;64;21289;-30
2022/01/01 07:01:19;;;;;;;108.43;82.53;;;20.40;48.80;;;;;;4380209;60;21054;-34
2022/01/01 07:06:20;;;;;;;114.88;88.07;;;20.40;48.90;;;;;;4375802;60;21047;-34
2022/01/01 07:11:21;;;;;;;114.05;87.78;;;20.40;48.80;;;;;;4339044;64;21236;-35
2022/01/01 07:16:22;;;;;;;114.57;88.95;;;20.40;48.70;;;;;;4350736;60;21076;-35
2022/01/01 07:21:23;;;;;;;109.20;83.70;;;20.40;48.70;;;;;;4355199;60;21107;-29
2022/01/01 07:26:23;;;;;;;110.50;83.87;;;20.40;48.70;;;;;;4355531;60;21577;-35
2022/01/01 07:31:24;;;;;;;105.50;80.55;;;20.40;48.60;;;;;;4355424;60;21087;-29
2022/01/01 07:36:25;;;;;;;107.47;79.45;;;20.40;48.70;;;;;;4376351;60;21120;-31
2022/01/01 07:41:26;;;;;;;105.87;81.43;;;20.40;48.60;;;;;;4378000;60;21079;-32
2022/01/01 07:46:27;;;;;;;107.43;83.62;;;20.50;48.70;;;;;;4338669;60;21565;-33
2022/01/01 07:51:28;;;;;;;107.87;83.62;;;20.40;48.60;;;;;;4345626;60;21567;-32
2022/01/01 07:56:29;;;;;;;107.63;83.80;;;20.40;48.70;;;;;;4339430;64;21637;-34
2022/01/01 08:01:30;;;;;;;98.20;75.95;;;20.40;48.50;;;;;;4358633;60;21123;-33
2022/01/01 08:06:32;;;;;;;103.40;79.85;;;20.40;48.60;;;;;;4378274;60;21067;-28
2022/01/01 08:11:33;;;;;;;102.05;80.53;;;20.40;48.40;;;;;;4339147;61;21862;-33
2022/01/01 08:16:33;;;;;;;100.90;79.22;;;20.50;48.50;;;;;;4338379;64;21083;-34
2022/01/01 08:21:34;;;;;;;98.40;75.32;;;20.40;48.50;;;;;;4345284;60;21036;-33
2022/01/01 08:26:35;;;;;;;99.28;77.30;;;20.40;48.40;;;;;;4338701;61;21301;-33
2022/01/01 08:31:36;;;;;;;97.62;77.00;;;20.40;48.50;;;;;;4338943;61;21068;-30
2022/01/01 08:36:37;;;;;;;97.95;76.03;;;20.40;48.40;;;;;;4379746;60;21156;-31
2022/01/01 08:41:38;;;;;;;101.62;77.35;;;20.40;48.60;;;;;;4340610;60;21637;-28
2022/01/01 08:46:39;;;;;;;94.95;71.78;;;20.40;48.40;;;;;;4386067;60;21101;-36
2022/01/01 08:51:44;;;;;;;90.75;70.37;;;20.40;48.40;;;;;;4359859;60;21060;-35
2022/01/01 08:56:45;;;;;;;94.55;72.78;;;20.40;48.40;;;;;;4354705;60;21081;-35
2022/01/01 09:01:46;;;;;;;95.72;75.25;;;20.40;48.40;;;;;;4349061;60;21902;-37
2022/01/01 09:06:46;;;;;;;96.72;74.70;;;20.40;48.40;;;;;;4354134;60;21506;-34
2022/01/01 09:11:47;;;;;;;97.05;74.97;;;20.40;48.30;;;;;;4355307;60;21063;-36
2022/01/01 09:16:49;;;;;;;93.62;73.35;;;20.40;48.30;;;;;;4348802;60;21076;-36
2022/01/01 09:21:49;;;;;;;90.75;71.75;;;20.40;48.30;;;;;;4376256;60;21043;-34
2022/01/01 09:26:50;;;;;;;92.35;72.43;;;20.40;48.30;;;;;;4376625;60;21652;-33
2022/01/01 09:31:51;;;;;;;92.45;70.62;;;20.40;48.30;;;;;;4338560;64;21071;-32
2022/01/01 09:36:54;;;;;;;94.87;73.95;;;20.40;49.00;;;;;;4356537;60;21067;-33
2022/01/01 09:41:56;;;;;;;88.22;70.93;;;20.40;48.30;;;;;;4354223;60;21547;-36
2022/01/01 09:46:57;;;;;;;91.40;71.68;;;20.50;48.40;;;;;;4347941;60;21099;-36
2022/01/01 09:51:58;;;;;;;91.22;71.15;;;20.40;48.30;;;;;;4360467;60;22159;-34
2022/01/01 09:56:59;;;;;;;88.10;69.03;;;20.40;48.30;;;;;;4374221;60;22482;-37
2022/01/01 10:02:00;;;;;;;88.55;68.82;;;20.40;48.30;;;;;;4353329;60;21095;-35
2022/01/01 10:07:03;;;;;;;86.75;68.75;;;20.50;48.30;;;;;;4339085;60;22029;-34
2022/01/01 10:12:06;;;;;;;91.57;70.82;;;20.40;48.30;;;;;;4339302;64;21123;-35
2022/01/01 10:17:19;;;;;;;88.32;69.72;;;20.40;48.30;;;;;;4348011;60;21040;-34
2022/01/01 10:22:21;;;;;;;85.57;67.90;;;20.50;48.30;;;;;;4354360;60;21060;-35
2022/01/01 10:27:42;;;;;;;87.15;70.78;;;20.50;48.30;;;;;;4350346;60;21139;-33
2022/01/01 10:33:12;;;;;;;86.12;70.25;;;20.50;48.20;;;;;;4380730;60;22602;-34
2022/01/01 10:38:31;;;;;;;88.62;69.93;;;20.50;48.20;;;;;;4343232;60;21536;-34
2022/01/01 10:43:42;;;;;;;85.25;68.78;;;20.50;48.30;;;;;;4362938;60;21084;-36
2022/01/01 10:48:58;;;;;;;84.13;67.82;;;20.50;48.30;;;;;;4346118;60;21036;-36
2022/01/01 10:54:01;;;;;;;84.95;66.57;;;20.50;48.20;;;;;;4370835;60;22512;-30
2022/01/01 10:59:03;;;;;;;83.20;67.20;;;20.50;48.20;;;;;;4403031;60;21593;-34
2022/01/01 11:04:04;;;;;;;86.82;69.07;;;20.50;48.20;;;;;;4353962;60;21589;-33
2022/01/01 11:09:10;;;;;;;83.10;65.40;;;20.50;48.20;;;;;;4372361;60;22005;-35
2022/01/01 11:14:11;;;;;;;88.12;68.18;;;20.50;47.70;;;;;;4344368;60;21741;-34
2022/01/01 11:19:13;;;;;;;83.72;68.37;;;20.60;48.30;;;;;;4358026;60;21135;-28
2022/01/01 11:24:15;;;;;;;83.12;67.30;;;20.50;48.20;;;;;;4356200;60;21076;-37
2022/01/01 11:29:16;;;;;;;86.87;67.95;;;20.50;48.30;;;;;;4344310;60;21108;-32
2022/01/01 11:34:18;;;;;;;90.18;70.28;;;20.50;48.30;;;;;;4344811;60;21534;-35
2022/01/01 11:39:22;;;;;;;88.18;70.45;;;20.60;48.40;;;;;;4344301;60;21060;-36
2022/01/01 11:44:31;;;;;;;83.85;67.93;;;20.60;48.30;;;;;;4340688;60;21573;-38
2022/01/01 11:49:33;;;;;;;81.97;67.62;;;20.60;48.30;;;;;;4351352;60;21127;-35
2022/01/01 11:54:38;;;;;;;85.22;67.32;;;20.60;48.40;;;;;;4339031;64;21123;-34
2022/01/01 12:00:00;;;;;;;89.53;70.03;;;20.60;48.40;;;;;;4338638;64;21594;-32
2022/01/01 12:05:16;;;;;;;87.95;68.50;;;20.60;48.50;;;;;;4338559;64;21580;-36
2022/01/01 12:10:28;;;;;;;85.30;68.97;;;20.50;48.40;;;;;;4339173;60;21670;-34
2022/01/01 12:15:50;;;;;;;84.75;67.20;;;20.50;48.40;;;;;;4341676;60;21087;-34
2022/01/01 12:21:01;;;;;;;83.12;66.65;;;20.50;48.50;;;;;;4340138;61;21151;-37
2022/01/01 12:26:10;;;;;;;81.28;63.50;;;20.50;48.50;;;;;;4347041;60;21581;-34
2022/01/01 12:31:22;;;;;;;82.47;65.60;;;20.50;48.50;;;;;;4357891;60;21105;-34
2022/01/01 12:36:25;;;;;;;85.15;67.47;;;20.60;48.60;;;;;;4338935;64;21095;-36
2022/01/01 12:41:38;;;;;;;84.00;66.60;;;20.50;48.60;;;;;;4351147;60;21060;-35
2022/01/01 12:46:48;;;;;;;82.65;68.35;;;20.50;48.60;;;;;;4344902;60;21075;-36
2022/01/01 12:51:53;;;;;;;83.45;66.80;;;20.50;48.60;;;;;;4351899;60;21052;-30
2022/01/01 12:56:55;;;;;;;83.20;67.57;;;20.50;48.70;;;;;;4348375;60;21606;-37
2022/01/01 13:02:02;;;;;;;88.70;70.35;;;20.50;48.70;;;;;;4346080;60;21059;-34
2022/01/01 13:07:03;;;;;;;90.22;71.65;;;20.50;48.70;;;;;;4338498;64;21056;-32
2022/01/01 13:12:07;;;;;;;87.10;69.72;;;20.50;48.70;;;;;;4338802;64;21549;-30
2022/01/01 13:17:07;;;;;;;85.32;69.03;;;20.50;48.70;;;;;;4355721;60;21079;-36
2022/01/01 13:22:08;;;;;;;86.68;70.03;;;20.50;49.40;;;;;;4342914;60;21589;-35
2022/01/01 13:27:09;;;;;;;88.47;69.28;;;20.50;48.70;;;;;;4350242;60;21059;-35
2022/01/01 13:32:10;;;;;;;86.95;71.03;;;20.50;49.40;;;;;;4372649;60;21128;-37
2022/01/01 13:37:18;;;;;;;84.62;67.47;;;20.50;48.80;;;;;;4353261;60;21529;-35
2022/01/01 13:42:19;;;;;;;85.57;69.90;;;20.50;48.90;;;;;;4349041;60;21532;-36
2022/01/01 13:47:29;;;;;;;89.00;70.32;;;20.50;48.80;;;;;;4346367;60;21128;-34
2022/01/01 13:52:36;;;;;;;87.47;70.15;;;20.50;49.00;;;;;;4348361;60;21760;-28
2022/01/01 13:57:50;;;;;;;84.32;66.95;;;20.50;48.80;;;;;;4371250;60;21545;-36
2022/01/01 14:02:54;;;;;;;85.97;69.47;;;20.50;48.80;;;;;;4359557;60;21733;-34
2022/01/01 14:09:04;;;;;;;88.22;70.85;;;20.50;48.90;;;;;;4359787;60;21055;-35
2022/01/01 14:14:10;;;;;;;84.95;68.72;;;20.50;48.80;;;;;;4346683;60;21079;-36
2022/01/01 14:19:18;;;;;;;84.35;67.53;;;20.50;48.90;;;;;;4357369;60;21100;-28
2022/01/01 14:24:23;;;;;;;87.57;71.65;;;20.50;48.90;;;;;;4358606;60;21128;-36
2022/01/01 14:29:27;;;;;;;91.25;71.93;;;20.50;48.80;;;;;;4339086;64;21522;-33
2022/01/01 14:34:27;;;;;;;89.13;71.45;;;20.50;48.90;;;;;;4359227;60;21054;-36
2022/01/01 14:39:29;;;;;;;84.22;68.85;;;20.50;48.90;;;;;;4339662;60;21106;-33
2022/01/01 14:44:29;;;;;;;87.00;69.93;;;20.50;48.90;;;;;;4390329;60;21139;-27
2022/01/01 14:49:45;;;;;;;89.10;69.68;;;20.50;48.90;;;;;;4346072;60;21127;-33
2022/01/01 14:55:58;;;;;;;92.00;72.47;;;20.50;49.00;;;;;;4350981;60;21039;-37
2022/01/01 15:01:00;;;;;;;90.93;72.55;;;20.50;48.90;;;;;;4339154;64;21074;-34
2022/01/01 15:06:03;;;;;;;84.15;68.00;;;20.50;49.00;;;;;;4338239;61;21533;-33
2022/01/01 15:11:04;;;;;;;86.30;68.90;;;20.50;49.00;;;;;;4348100;60;21056;-36
2022/01/01 15:16:07;;;;;;;85.95;68.95;;;20.50;49.00;;;;;;4345863;60;21546;-33
2022/01/01 15:21:15;;;;;;;88.57;70.85;;;20.50;49.00;;;;;;4338445;64;21086;-35
2022/01/01 15:26:21;;;;;;;88.05;70.87;;;20.50;49.00;;;;;;4372672;60;21614;-35
2022/01/01 15:31:31;;;;;;;82.70;68.35;;;20.50;49.00;;;;;;4350242;60;21247;-34
2022/01/01 15:36:40;;;;;;;90.25;71.95;;;20.50;49.00;;;;;;4340900;60;21163;-34
2022/01/01 15:46:54;;;;;;;85.25;69.93;;;20.50;49.00;;;;;;4358935;60;21144;-36
2022/01/01 15:51:56;;;;;;;87.93;69.00;;;20.50;49.00;;;;;;4380367;60;21609;-36
2022/01/01 15:57:55;;;;;;;84.37;69.18;;;20.50;49.10;;;;;;4339661;60;21180;-35
2022/01/01 16:03:33;;;;;;;85.35;69.43;;;20.50;49.10;;;;;;4339913;60;21494;-35
2022/01/01 16:08:38;;;;;;;89.78;70.80;;;20.50;49.20;;;;;;4359537;60;22069;-35
2022/01/01 16:13:46;;;;;;;83.90;68.22;;;20.50;49.10;;;;;;4365286;60;21589;-34
2022/01/01 16:18:52;;;;;;;84.30;68.65;;;20.50;49.70;;;;;;4338706;64;21080;-34
2022/01/01 16:23:53;;;;;;;82.88;68.22;;;20.50;49.10;;;;;;4343734;60;21564;-34
2022/01/01 16:28:54;;;;;;;84.87;68.10;;;20.50;49.10;;;;;;4339255;61;21107;-35
2022/01/01 16:33:55;;;;;;;85.93;70.35;;;20.50;49.10;;;;;;4350997;60;21056;-33
2022/01/01 16:39:01;;;;;;;86.95;71.10;;;20.50;49.10;;;;;;4360301;60;21127;-31
2022/01/01 16:45:11;;;;;;;86.17;68.83;;;20.50;49.20;;;;;;4348860;60;21566;-33
2022/01/01 16:50:17;;;;;;;86.57;69.90;;;20.50;49.20;;;;;;4338482;60;21048;-34
2022/01/01 16:55:38;;;;;;;89.45;71.37;;;20.50;49.20;;;;;;4355552;60;21565;-34
2022/01/01 17:00:43;;;;;;;86.05;69.93;;;20.50;49.20;;;;;;4338672;61;21114;-36
2022/01/01 17:05:45;;;;;;;84.57;69.60;;;20.50;49.20;;;;;;4365759;60;21079;-30
2022/01/01 17:10:47;;;;;;;82.93;67.18;;;20.50;49.20;;;;;;4343855;60;21154;-35
2022/01/01 17:16:17;;;;;;;86.72;66.62;;;20.50;49.20;;;;;;4365798;60;21557;-33
2022/01/01 17:21:19;;;;;;;89.40;69.78;;;20.50;49.20;;;;;;4339210;64;21091;-35
2022/01/01 17:26:24;;;;;;;88.37;70.03;;;20.50;49.20;;;;;;4338998;64;21689;-35
2022/01/01 17:31:30;;;;;;;85.22;67.28;;;20.50;49.30;;;;;;4338879;60;21390;-34
2022/01/01 17:48:32;;;;;;;89.25;72.30;;;20.50;49.20;;;;;;4364899;60;21103;-33
2022/01/01 17:53:35;;;;;;;84.32;68.60;;;20.40;49.20;;;;;;4345218;60;21079;-34
2022/01/01 17:58:47;;;;;;;85.35;68.40;;;20.50;49.30;;;;;;4364986;60;21039;-31
2022/01/01 18:03:48;;;;;;;88.35;69.72;;;20.50;49.30;;;;;;4416377;60;21633;-33
2022/01/01 18:08:56;;;;;;;87.05;70.00;;;20.50;49.30;;;;;;4367399;60;21124;-35
2022/01/01 18:14:02;;;;;;;87.53;70.80;;;20.50;49.30;;;;;;4338943;60;21533;-34
2022/01/01 18:19:06;;;;;;;86.95;69.12;;;20.50;49.30;;;;;;4348251;60;21051;-35
2022/01/01 18:24:24;;;;;;;93.00;72.72;;;20.50;49.30;;;;;;4350999;60;21147;-31
2022/01/01 18:29:27;;;;;;;85.75;68.03;;;20.50;49.30;;;;;;4348209;60;21104;-36
2022/01/01 18:34:29;;;;;;;88.82;71.62;;;20.40;49.30;;;;;;4361688;60;21590;-36
2022/01/01 18:39:30;;;;;;;89.97;69.90;;;20.40;49.30;;;;;;4357956;60;21058;-34
2022/01/01 18:44:31;;;;;;;92.57;73.07;;;20.40;49.30;;;;;;4345761;60;21059;-36
2022/01/01 18:49:35;;;;;;;92.05;73.40;;;20.40;49.30;;;;;;4345362;60;21272;-31
2022/01/01 18:54:41;;;;;;;92.65;72.32;;;20.50;49.30;;;;;;4389846;60;21055;-32
2022/01/01 18:59:54;;;;;;;93.63;73.67;;;20.40;49.30;;;;;;4371789;60;21085;-33
2022/01/01 19:04:59;;;;;;;93.00;72.85;;;20.50;49.30;;;;;;4360699;60;21036;-32
2022/01/01 19:10:05;;;;;;;92.62;72.40;;;20.40;49.30;;;;;;4367825;60;21673;-34
2022/01/01 19:15:07;;;;;;;97.47;72.57;;;20.40;49.30;;;;;;4339265;64;21055;-36
2022/01/01 19:20:08;;;;;;;87.72;67.32;;;20.40;49.30;;;;;;4349762;60;21118;-34
2022/01/01 19:25:17;;;;;;;97.32;75.75;;;20.40;49.30;;;;;;4375515;60;21035;-34
2022/01/01 19:30:21;;;;;;;102.12;78.10;;;20.50;49.30;;;;;;4341211;60;21167;-35
2022/01/01 19:35:22;;;;;;;97.35;76.85;;;20.40;49.30;;;;;;4347008;60;21032;-33
2022/01/01 19:40:24;;;;;;;92.32;72.12;;;20.40;49.30;;;;;;4339250;60;21074;-35
2022/01/01 19:45:25;;;;;;;100.70;78.60;;;20.40;49.30;;;;;;4338720;64;21128;-33
2022/01/01 19:50:27;;;;;;;97.15;76.75;;;20.40;49.30;;;;;;4346360;60;21066;-36
2022/01/01 19:55:28;;;;;;;95.65;75.78;;;20.40;49.20;;;;;;4348477;60;21077;-35
2022/01/01 20:00:29;;;;;;;104.00;81.30;;;20.40;49.20;;;;;;4360716;60;21542;-35
2022/01/01 20:05:31;;;;;;;99.53;80.60;;;20.40;49.20;;;;;;4359532;60;22096;-31
2022/01/01 20:10:32;;;;;;;106.40;80.93;;;20.40;49.20;;;;;;4358440;60;21628;-36
2022/01/01 20:15:33;;;;;;;99.50;77.05;;;20.40;49.20;;;;;;4371975;60;21418;-35
2022/01/01 20:20:34;;;;;;;100.75;77.55;;;20.40;49.20;;;;;;4343693;60;21165;-32
2022/01/01 20:25:35;;;;;;;102.97;80.00;;;20.40;49.30;;;;;;4374434;60;21184;-36
2022/01/01 20:30:36;;;;;;;98.05;75.65;;;20.40;49.20;;;;;;4338753;64;22109;-34
2022/01/01 20:35:37;;;;;;;97.60;76.95;;;20.40;49.20;;;;;;4344870;60;22084;-33
2022/01/01 20:40:39;;;;;;;102.15;78.90;;;20.40;49.30;;;;;;4354445;60;21155;-30
2022/01/01 20:45:40;;;;;;;103.07;81.65;;;20.40;49.30;;;;;;4349078;60;21078;-36
2022/01/01 20:50:42;;;;;;;106.12;83.47;;;20.40;49.80;;;;;;4363855;60;21087;-36
2022/01/01 20:55:43;;;;;;;98.75;74.90;;;20.40;49.30;;;;;;4374387;60;21645;-34
2022/01/01 21:00:47;;;;;;;103.18;80.95;;;20.40;49.30;;;;;;4352856;60;21111;-35
2022/01/01 21:05:55;;;;;;;108.30;82.30;;;20.40;49.30;;;;;;4357642;60;21128;-36
2022/01/01 21:10:56;;;;;;;104.47;82.05;;;20.40;49.20;;;;;;4342842;60;21055;-34
2022/01/01 21:15:57;;;;;;;106.53;83.50;;;20.40;49.20;;;;;;4338098;64;21095;-37
2022/01/01 21:20:58;;;;;;;105.18;80.10;;;20.40;49.20;;;;;;4349817;60;21109;-31
2022/01/01 21:25:59;;;;;;;105.43;80.97;;;20.40;49.30;;;;;;4391589;60;21062;-33
2022/01/01 21:31:00;;;;;;;109.00;83.80;;;20.40;49.30;;;;;;4344168;60;21310;-37
2022/01/01 21:36:02;;;;;;;108.40;82.97;;;20.40;49.20;;;;;;4359212;60;21605;-37
2022/01/01 21:41:03;;;;;;;108.87;83.65;;;20.40;49.20;;;;;;4339354;64;21060;-35
2022/01/01 21:46:04;;;;;;;108.60;85.43;;;20.40;49.20;;;;;;4373814;60;21577;-36
2022/01/01 21:51:05;;;;;;;108.47;81.80;;;20.40;49.30;;;;;;4344413;60;21084;-30
2022/01/01 21:56:06;;;;;;;107.95;83.43;;;20.40;49.30;;;;;;4356505;60;21048;-34
2022/01/01 22:01:07;;;;;;;105.70;84.22;;;20.40;49.70;;;;;;4361069;60;21538;-35
2022/01/01 22:06:08;;;;;;;110.12;84.57;;;20.40;49.20;;;;;;4338351;64;21060;-37
2022/01/01 22:11:09;;;;;;;116.00;87.88;;;20.40;49.20;;;;;;4367460;60;21233;-33
2022/01/01 22:16:10;;;;;;;111.93;84.28;;;20.40;49.20;;;;;;4338532;61;21944;-35
2022/01/01 22:21:11;;;;;;;117.75;88.37;;;20.40;49.20;;;;;;4339157;60;21569;-36
2022/01/01 22:26:12;;;;;;;113.72;87.65;;;20.40;49.20;;;;;;4339845;60;21047;-27
2022/01/01 22:31:13;;;;;;;115.37;88.87;;;20.40;49.30;;;;;;4350002;60;21104;-35
2022/01/01 22:36:15;;;;;;;112.55;82.55;;;20.40;49.20;;;;;;4339016;64;21131;-36
2022/01/01 22:41:15;;;;;;;117.47;89.78;;;20.40;49.20;;;;;;4360944;60;21522;-31
2022/01/01 22:46:16;;;;;;;116.68;88.80;;;20.40;49.20;;;;;;4339276;60;21039;-31
2022/01/01 22:51:17;;;;;;;119.45;91.00;;;20.40;49.30;;;;;;4369525;60;21059;-35
2022/01/01 22:56:18;;;;;;;116.60;89.47;;;20.40;49.20;;;;;;4349381;60;21648;-29
2022/01/01 23:01:24;;;;;;;116.62;86.95;;;20.40;49.20;;;;;;4360713;60;21255;-29
2022/01/01 23:06:26;;;;;;;117.32;89.47;;;20.40;49.20;;;;;;4339731;60;21101;-35
2022/01/01 23:11:27;;;;;;;123.97;92.37;;;20.40;49.30;;;;;;4355598;60;21067;-33
2022/01/01 23:16:31;;;;;;;121.57;92.25;;;20.40;49.30;;;;;;4337961;64;21561;-33
2022/01/01 23:21:38;;;;;;;123.43;92.85;;;20.40;49.20;;;;;;4353681;60;21086;-36
2022/01/01 23:26:45;;;;;;;123.87;91.22;;;20.40;49.20;;;;;;4344702;60;21051;-33
2022/01/01 23:31:48;;;;;;;125.03;92.35;;;20.40;49.20;;;;;;4349473;60;21557;-34
2022/01/01 23:36:52;;;;;;;126.57;95.57;;;20.40;49.30;;;;;;4349354;60;21028;-36
2022/01/01 23:41:55;;;;;;;123.70;94.00;;;20.40;49.30;;;;;;4352029;60;21610;-36
2022/01/01 23:47:00;;;;;;;126.55;91.72;;;20.30;49.20;;;;;;4367447;60;21139;-36
2022/01/01 23:52:23;;;;;;;130.63;96.50;;;20.40;49.30;;;;;;4350362;60;21110;-36
2022/01/01 23:57:34;;;;;;;122.03;87.30;;;20.40;49.30;;;;;;4372921;60;21101;-36
